createdAt,value
2023-02-09T00:04:26.424Z,3.97
2023-02-09T00:09:30.087Z,5.60
2023-02-09T00:14:35.192Z,14.47
2023-02-09T00:19:39.691Z,14.30
2023-02-09T00:24:42.842Z,14.63
2023-02-09T00:29:48.374Z,15.30
2023-02-09T00:34:52.871Z,8.30
2023-02-09T00:39:55.962Z,11.30
2023-02-09T00:44:59.104Z,12.37
2023-02-09T00:50:06.671Z,8.13
2023-02-09T00:55:10.184Z,14.37
2023-02-09T01:00:15.876Z,13.67
2023-02-09T01:05:20.343Z,6.47
2023-02-09T01:10:23.549Z,7.00
2023-02-09T01:15:26.699Z,4.10
2023-02-09T01:20:31.165Z,5.23
2023-02-09T01:25:34.693Z,4.27
2023-02-09T01:30:37.863Z,4.03
2023-02-09T01:35:42.378Z,5.63
2023-02-09T01:40:48.793Z,4.20
2023-02-09T01:45:54.685Z,5.77
2023-02-09T01:51:02.077Z,5.47
2023-02-09T01:56:09.080Z,4.87
2023-02-09T02:01:12.742Z,8.53
2023-02-09T02:06:19.383Z,8.73
2023-02-09T02:11:24.708Z,6.00
2023-02-09T02:16:44.368Z,7.27
2023-02-09T02:22:35.552Z,4.70
2023-02-09T02:27:46.493Z,8.53
2023-02-09T02:33:12.773Z,9.13
2023-02-09T02:38:22.631Z,5.80
2023-02-09T02:43:38.893Z,5.97
2023-02-09T02:48:47.929Z,8.17
2023-02-09T02:53:55.280Z,7.87
2023-02-09T02:59:00.523Z,4.80
2023-02-09T03:04:07.463Z,7.43
2023-02-09T03:09:10.860Z,7.63
2023-02-09T03:14:26.652Z,7.30
2023-02-09T03:19:42.025Z,6.90
2023-02-09T03:24:51.943Z,9.37
2023-02-09T03:30:01.021Z,9.57
2023-02-09T03:35:06.913Z,10.37
2023-02-09T03:40:10.944Z,8.93
2023-02-09T03:45:14.065Z,9.67
2023-02-09T03:50:18.979Z,6.67
2023-02-09T03:55:22.091Z,6.97
2023-02-09T04:00:25.342Z,5.73
2023-02-09T04:05:29.859Z,4.17
2023-02-09T04:10:32.956Z,6.00
2023-02-09T04:15:36.574Z,5.00
2023-02-09T04:20:41.102Z,6.70
2023-02-09T04:25:44.285Z,5.57
2023-02-09T04:30:52.221Z,5.23
2023-02-09T04:35:56.754Z,5.47
2023-02-09T04:41:01.486Z,6.93
2023-02-09T04:46:04.801Z,8.47
2023-02-09T04:51:09.326Z,8.40
2023-02-09T04:56:15.656Z,8.00
2023-02-09T05:01:24.391Z,8.97
2023-02-09T05:06:28.881Z,9.50
2023-02-09T05:11:32.004Z,8.90
2023-02-09T05:16:35.159Z,7.67
2023-02-09T05:21:39.795Z,8.43
2023-02-09T05:26:43.510Z,6.67
2023-02-09T05:31:46.692Z,6.93
2023-02-09T05:36:51.280Z,5.30
2023-02-09T05:42:11.603Z,5.13
2023-02-09T05:47:18.286Z,7.70
2023-02-09T05:52:22.893Z,6.13
2023-02-09T05:57:25.990Z,6.57
2023-02-09T06:02:29.173Z,6.60
2023-02-09T06:07:33.866Z,6.23
2023-02-09T06:12:36.952Z,7.30
2023-02-09T06:17:40.112Z,10.17
2023-02-09T06:22:47.312Z,7.03
2023-02-09T06:27:50.474Z,6.67
2023-02-09T06:32:53.715Z,5.83
2023-02-09T06:38:00.589Z,11.10
2023-02-09T06:43:03.742Z,11.80
2023-02-09T06:48:07.499Z,15.40
2023-02-09T06:53:14.622Z,16.67
2023-02-09T06:58:20.348Z,13.40
2023-02-09T07:03:23.558Z,12.43
2023-02-09T07:08:28.124Z,13.33
2023-02-09T07:13:31.973Z,12.70
2023-02-09T07:18:35.471Z,10.10
2023-02-09T07:23:40.332Z,7.73
2023-02-09T07:28:43.815Z,6.70
2023-02-09T07:33:47.561Z,6.73
2023-02-09T07:38:52.377Z,6.83
2023-02-09T07:43:57.111Z,8.30
2023-02-09T07:49:01.511Z,11.60
2023-02-09T07:54:08.575Z,10.80
2023-02-09T07:59:12.358Z,9.97
2023-02-09T08:04:15.618Z,9.03
2023-02-09T08:09:20.097Z,7.67
2023-02-09T08:14:27.159Z,8.23
2023-02-09T08:19:30.345Z,7.70
2023-02-09T08:24:35.018Z,7.90
2023-02-09T08:29:38.221Z,8.77
2023-02-09T08:34:41.311Z,7.37
2023-02-09T08:39:46.043Z,6.27
2023-02-09T08:44:49.217Z,8.47
2023-02-09T08:49:52.299Z,8.57
2023-02-09T08:54:56.746Z,8.67
2023-02-09T08:59:59.846Z,10.27
2023-02-09T09:05:03.023Z,12.93
2023-02-09T09:10:09.450Z,14.97
2023-02-09T09:15:12.594Z,14.67
2023-02-09T09:20:15.770Z,14.53
2023-02-09T09:25:20.306Z,17.87
2023-02-09T09:30:23.381Z,17.13
2023-02-09T09:35:27.144Z,14.97
2023-02-09T09:40:34.298Z,16.53
2023-02-09T09:45:40.417Z,14.70
2023-02-09T09:50:44.648Z,15.23
2023-02-09T09:55:51.437Z,14.83
2023-02-09T10:00:55.099Z,15.73
2023-02-09T10:06:02.847Z,15.93
2023-02-09T10:11:11.024Z,17.63
2023-02-09T10:16:17.587Z,16.63
2023-02-09T10:21:21.475Z,16.90
2023-02-09T10:26:28.642Z,16.93
2023-02-09T10:31:35.062Z,17.83
2023-02-09T10:36:47.650Z,20.63
2023-02-09T10:41:54.042Z,18.93
2023-02-09T10:47:11.406Z,16.57
2023-02-09T10:52:19.980Z,17.93
2023-02-09T10:57:27.900Z,19.27
2023-02-09T11:02:36.640Z,20.37
2023-02-09T11:07:42.926Z,21.77
2023-02-09T11:12:48.287Z,21.20
2023-02-09T11:17:54.830Z,19.20
2023-02-09T11:23:40.112Z,19.93
2023-02-09T11:28:52.452Z,18.70
2023-02-09T11:34:05.151Z,20.10
2023-02-09T11:39:14.740Z,21.67
2023-02-09T11:44:28.765Z,22.67
2023-02-09T11:49:45.624Z,20.93
2023-02-09T11:54:53.909Z,21.00
2023-02-09T12:00:02.175Z,19.37
2023-02-09T12:05:06.737Z,20.63
2023-02-09T12:10:20.686Z,19.60
2023-02-09T12:15:27.829Z,20.80
2023-02-09T12:20:45.475Z,19.83
2023-02-09T12:25:54.586Z,21.00
2023-02-09T12:31:12.018Z,21.53
2023-02-09T12:36:30.241Z,20.63
2023-02-09T12:42:11.690Z,20.23
2023-02-09T12:47:56.527Z,21.77
2023-02-09T12:53:37.063Z,22.90
2023-02-09T12:58:54.119Z,20.63
2023-02-09T13:04:03.000Z,24.13
2023-02-09T13:09:10.565Z,22.30
2023-02-09T13:14:17.343Z,23.67
2023-02-09T13:19:50.424Z,22.50
2023-02-09T13:24:57.803Z,19.57
2023-02-09T13:30:00.984Z,22.07
2023-02-09T13:35:17.276Z,23.07
2023-02-09T13:40:23.955Z,23.37
2023-02-09T13:45:28.251Z,22.40
2023-02-09T13:50:33.594Z,24.07
2023-02-09T13:55:39.821Z,24.00
2023-02-09T14:00:45.379Z,25.10
2023-02-09T14:05:55.034Z,23.37
2023-02-09T14:11:03.893Z,24.30
2023-02-09T14:16:08.289Z,23.97
2023-02-09T14:21:22.614Z,24.37
2023-02-09T14:26:27.308Z,22.07
2023-02-09T14:31:30.578Z,24.67
2023-02-09T14:36:37.399Z,21.03
2023-02-09T14:41:40.891Z,21.30
2023-02-09T14:46:52.259Z,22.57
2023-02-09T14:52:04.683Z,23.37
2023-02-09T14:57:11.352Z,21.30
2023-02-09T15:02:19.394Z,21.63
2023-02-09T15:07:28.407Z,24.20
2023-02-09T15:12:31.669Z,22.33
2023-02-09T15:17:34.772Z,22.83
2023-02-09T15:22:39.245Z,23.60
2023-02-09T15:27:51.358Z,23.03
2023-02-09T15:32:55.245Z,24.67
2023-02-09T15:38:01.539Z,25.03
2023-02-09T15:43:31.289Z,26.50
2023-02-09T15:48:34.922Z,24.43
2023-02-09T15:53:40.232Z,26.00
2023-02-09T15:58:46.020Z,27.87
2023-02-09T16:03:49.153Z,25.07
2023-02-09T16:08:54.432Z,25.80
2023-02-09T16:13:57.540Z,28.40
2023-02-09T16:19:00.608Z,29.03
2023-02-09T16:24:07.503Z,29.43
2023-02-09T16:29:14.333Z,29.80
2023-02-09T16:34:17.432Z,27.07
2023-02-09T16:39:23.176Z,26.40
2023-02-09T16:44:30.440Z,26.83
2023-02-09T16:49:37.502Z,29.27
2023-02-09T16:54:45.637Z,29.57
2023-02-09T16:59:48.740Z,28.73
2023-02-09T17:04:51.948Z,30.63
2023-02-09T17:09:57.454Z,30.10
2023-02-09T17:15:00.700Z,32.70
2023-02-09T17:20:04.277Z,37.20
2023-02-09T17:25:15.496Z,31.60
2023-02-09T17:30:19.479Z,27.03
2023-02-09T17:35:44.577Z,27.80
2023-02-09T17:40:47.777Z,34.67
2023-02-09T17:45:51.776Z,33.87
2023-02-09T17:50:58.060Z,35.07
2023-02-09T17:56:03.159Z,51.27
2023-02-09T18:01:23.676Z,39.93
2023-02-09T18:06:34.362Z,36.57
2023-02-09T18:11:57.571Z,32.23
2023-02-09T18:17:01.329Z,25.93
2023-02-09T18:22:05.150Z,31.33
2023-02-09T18:27:10.460Z,27.50
2023-02-09T18:32:16.720Z,24.27
2023-02-09T18:37:19.958Z,28.67
2023-02-09T18:42:24.625Z,25.43
2023-02-09T18:47:28.207Z,29.60
2023-02-09T18:52:31.430Z,28.47
2023-02-09T18:57:36.710Z,33.63
2023-02-09T19:02:40.599Z,32.27
2023-02-09T19:07:44.587Z,35.03
2023-02-09T19:12:49.981Z,27.07
2023-02-09T19:17:55.188Z,27.47
2023-02-09T19:22:59.895Z,25.07
2023-02-09T19:28:04.397Z,30.93
2023-02-09T19:33:07.494Z,30.17
2023-02-09T19:38:10.601Z,29.23
2023-02-09T19:43:15.079Z,31.30
2023-02-09T19:48:18.366Z,31.67
2023-02-09T19:53:21.488Z,27.07
2023-02-09T19:58:26.416Z,32.17
2023-02-09T20:03:31.110Z,32.00
2023-02-09T20:08:34.252Z,27.00
2023-02-09T20:13:39.358Z,35.90
2023-02-09T20:18:43.523Z,28.47
2023-02-09T20:23:47.199Z,30.50
2023-02-09T20:28:52.059Z,24.97
2023-02-09T20:33:56.061Z,27.33
2023-02-09T20:38:59.257Z,25.00
2023-02-09T20:44:21.252Z,27.80
2023-02-09T20:49:25.906Z,30.90
2023-02-09T20:54:31.687Z,29.67
2023-02-09T20:59:36.211Z,31.30
2023-02-09T21:04:39.503Z,45.93
2023-02-09T21:09:44.196Z,42.03
2023-02-09T21:14:50.788Z,28.30
2023-02-09T21:19:53.932Z,27.00
2023-02-09T21:24:57.052Z,31.67
2023-02-09T21:30:02.161Z,30.50
2023-02-09T21:35:10.062Z,31.33
2023-02-09T21:40:13.813Z,30.67
2023-02-09T21:45:18.398Z,28.33
2023-02-09T21:50:22.280Z,29.73
2023-02-09T21:55:25.458Z,28.20
2023-02-09T22:00:30.769Z,27.40
2023-02-09T22:05:34.064Z,30.73
2023-02-09T22:10:37.265Z,29.83
2023-02-09T22:15:43.268Z,32.57
2023-02-09T22:20:48.501Z,26.63
2023-02-09T22:25:51.682Z,27.23
2023-02-09T22:30:56.970Z,23.97
2023-02-09T22:36:00.121Z,35.47
2023-02-09T22:41:07.314Z,32.17
2023-02-09T22:46:12.002Z,26.53
2023-02-09T22:51:17.700Z,30.03
2023-02-09T22:56:20.840Z,27.60
2023-02-09T23:01:25.421Z,34.50
2023-02-09T23:06:30.206Z,30.27
2023-02-09T23:11:33.426Z,25.70
2023-02-09T23:16:38.348Z,28.90
2023-02-09T23:21:43.363Z,35.80
2023-02-09T23:26:46.535Z,37.50
2023-02-09T23:31:51.168Z,41.17
2023-02-09T23:36:54.277Z,35.73
2023-02-09T23:41:57.346Z,41.43
2023-02-09T23:47:01.774Z,34.13
2023-02-09T23:52:04.993Z,33.40
2023-02-09T23:57:08.072Z,35.63
